Airfield :
LOGIN :

Register | Disclaimer

   EN    FR    IT 

 










Legend :    VFR   Marginal VFR   IFR   Intensive IFR   Very Intensive IFR
Visi :
Ceiling :
>= 8 km
>= 3000ft
5 to 8 km
1000 to 3000 ft
1500m to 5 km
500 to 1000 ft
800 to 1500m
200 to 500 ft
< 800m
< 200 ft
Symbols :   Thunderstorms  Fog  Heavy snow  Heavy precipitations  Wind > 20 kt
SIGMETs :     Misc.  Thunderstorms  Icing  Turbulence  Mountain Waves  Volcanic Ashes






- Airport Elevation : 76 ft
- IATA code : KID


ESMK - Kristianstad

CURRENT METAR :
  • 070920Z 28007KT 230V320 9999 FEW020 SCT025 BKN045 07/03 Q1004

EXPIRED METARs :
  • 070850Z 32006KT 270V350 9999 SCT017 BKN025 07/04 Q1003
  • 070820Z 28006KT 260V320 9999 BKN012 07/04 Q1003
  • 070750Z 29004KT 260V340 9999 FEW010 BKN015 OVC019 05/04 Q1003
  • 070720Z 30006KT 9999 -RA FEW009 BKN012 BKN020 05/04 Q1003
  • 070650Z 30005KT 270V330 9999 -DZ SCT010 BKN018 OVC031 05/04 Q1003

TAF TAF ESMK
Valid from the 07 at 09:00 until the 07 at 17:00 UTC


070803Z 0709/0717 30008KT 9999 BKN020
TEMPO 0709/0717 4000 SHRA BKN012 SCT015CB



MET'MAP, your aeronautical weather chart ! - Copyright ORBIFLY December 2007 - Disclaimer

ORBIFLY MET'MAP TEAM :

Programming & Development : Alexandra Zaïnal
Concept & original design : Baudouin d'Aumeries
Assistance for programming : Marc-Olivier Méhu
Technical & hardware support : Manuel Goepfert

Contact : metmap@orbifly.com




SOURCES & CREDITS :

   NOAA